sensor_id;sensor_type;location;lat;lon;timestamp;temperature;humidity
20560;DHT22;10438;51.454;6.718;2023-02-20T00:02:05;5.80;99.90
20560;DHT22;10438;51.454;6.718;2023-02-20T00:04:30;5.70;99.90
20560;DHT22;10438;51.454;6.718;2023-02-20T00:06:56;5.70;99.90
20560;DHT22;10438;51.454;6.718;2023-02-20T00:09:21;5.70;99.90
20560;DHT22;10438;51.454;6.718;2023-02-20T00:11:47;5.70;99.90
20560;DHT22;10438;51.454;6.718;2023-02-20T00:14:12;5.70;99.90
20560;DHT22;10438;51.454;6.718;2023-02-20T00:16:38;5.60;99.90
20560;DHT22;10438;51.454;6.718;2023-02-20T00:19:03;5.60;99.90
20560;DHT22;10438;51.454;6.718;2023-02-20T00:21:30;5.60;99.90
20560;DHT22;10438;51.454;6.718;2023-02-20T00:23:55;5.70;99.90
20560;DHT22;10438;51.454;6.718;2023-02-20T00:26:21;5.70;99.90
20560;DHT22;10438;51.454;6.718;2023-02-20T00:28:46;5.70;99.90
20560;DHT22;10438;51.454;6.718;2023-02-20T00:31:14;5.70;99.90
20560;DHT22;10438;51.454;6.718;2023-02-20T00:33:41;5.70;99.90
20560;DHT22;10438;51.454;6.718;2023-02-20T00:36:07;5.70;99.90
20560;DHT22;10438;51.454;6.718;2023-02-20T00:38:33;5.70;99.90
20560;DHT22;10438;51.454;6.718;2023-02-20T00:40:58;5.80;99.90
20560;DHT22;10438;51.454;6.718;2023-02-20T00:43:24;5.80;99.90
20560;DHT22;10438;51.454;6.718;2023-02-20T00:45:49;5.80;99.90
20560;DHT22;10438;51.454;6.718;2023-02-20T00:48:15;5.80;99.90
20560;DHT22;10438;51.454;6.718;2023-02-20T00:50:40;5.80;99.90
20560;DHT22;10438;51.454;6.718;2023-02-20T00:53:06;5.80;99.90
20560;DHT22;10438;51.454;6.718;2023-02-20T00:55:31;5.80;99.90
20560;DHT22;10438;51.454;6.718;2023-02-20T00:57:57;5.90;99.90
20560;DHT22;10438;51.454;6.718;2023-02-20T01:00:25;5.90;99.90
20560;DHT22;10438;51.454;6.718;2023-02-20T01:02:51;5.90;99.90
20560;DHT22;10438;51.454;6.718;2023-02-20T01:05:17;6.00;99.90
20560;DHT22;10438;51.454;6.718;2023-02-20T01:07:42;6.00;99.90
20560;DHT22;10438;51.454;6.718;2023-02-20T01:10:09;6.00;99.90
20560;DHT22;10438;51.454;6.718;2023-02-20T01:12:35;6.00;99.90
20560;DHT22;10438;51.454;6.718;2023-02-20T01:15:00;6.00;99.90
20560;DHT22;10438;51.454;6.718;2023-02-20T01:17:26;6.00;99.90
20560;DHT22;10438;51.454;6.718;2023-02-20T01:19:51;6.10;99.90
20560;DHT22;10438;51.454;6.718;2023-02-20T01:22:17;6.10;99.90
20560;DHT22;10438;51.454;6.718;2023-02-20T01:24:42;6.10;99.90
20560;DHT22;10438;51.454;6.718;2023-02-20T01:27:09;6.20;99.90
20560;DHT22;10438;51.454;6.718;2023-02-20T01:29:34;6.20;99.90
20560;DHT22;10438;51.454;6.718;2023-02-20T01:32:00;6.20;99.90
20560;DHT22;10438;51.454;6.718;2023-02-20T01:34:26;6.20;99.90
20560;DHT22;10438;51.454;6.718;2023-02-20T01:36:53;6.30;99.90
20560;DHT22;10438;51.454;6.718;2023-02-20T01:39:24;6.30;99.90
20560;DHT22;10438;51.454;6.718;2023-02-20T01:41:53;6.30;99.90
20560;DHT22;10438;51.454;6.718;2023-02-20T01:44:23;6.30;99.90
20560;DHT22;10438;51.454;6.718;2023-02-20T01:46:51;6.40;99.90
20560;DHT22;10438;51.454;6.718;2023-02-20T01:49:36;6.40;99.90
20560;DHT22;10438;51.454;6.718;2023-02-20T01:52:16;6.40;99.90
20560;DHT22;10438;51.454;6.718;2023-02-20T01:54:47;6.40;99.90
20560;DHT22;10438;51.454;6.718;2023-02-20T01:57:17;6.40;99.90
20560;DHT22;10438;51.454;6.718;2023-02-20T01:59:45;6.40;99.90
20560;DHT22;10438;51.454;6.718;2023-02-20T02:02:11;6.40;99.90
20560;DHT22;10438;51.454;6.718;2023-02-20T02:04:39;6.40;99.90
20560;DHT22;10438;51.454;6.718;2023-02-20T02:07:05;6.30;99.90
20560;DHT22;10438;51.454;6.718;2023-02-20T02:09:53;6.30;99.90
20560;DHT22;10438;51.454;6.718;2023-02-20T02:12:20;6.20;99.90
20560;DHT22;10438;51.454;6.718;2023-02-20T02:14:46;6.20;99.90
20560;DHT22;10438;51.454;6.718;2023-02-20T02:28:52;6.20;99.90
20560;DHT22;10438;51.454;6.718;2023-02-20T02:42:42;6.10;99.90
20560;DHT22;10438;51.454;6.718;2023-02-20T02:45:26;6.10;99.90
20560;DHT22;10438;51.454;6.718;2023-02-20T02:47:59;6.10;99.90
20560;DHT22;10438;51.454;6.718;2023-02-20T02:50:32;6.20;99.90
20560;DHT22;10438;51.454;6.718;2023-02-20T02:53:01;6.20;99.90
20560;DHT22;10438;51.454;6.718;2023-02-20T02:55:30;6.20;99.90
20560;DHT22;10438;51.454;6.718;2023-02-20T02:57:56;6.20;99.90
20560;DHT22;10438;51.454;6.718;2023-02-20T03:00:47;6.20;99.90
20560;DHT22;10438;51.454;6.718;2023-02-20T03:03:22;6.20;99.90
20560;DHT22;10438;51.454;6.718;2023-02-20T03:06:10;6.20;99.90
20560;DHT22;10438;51.454;6.718;2023-02-20T03:08:47;6.20;99.90
20560;DHT22;10438;51.454;6.718;2023-02-20T03:11:19;6.30;99.90
20560;DHT22;10438;51.454;6.718;2023-02-20T03:13:52;6.30;99.90
20560;DHT22;10438;51.454;6.718;2023-02-20T03:17:06;6.40;99.90
20560;DHT22;10438;51.454;6.718;2023-02-20T03:19:41;6.40;99.90
20560;DHT22;10438;51.454;6.718;2023-02-20T03:22:15;6.30;99.90
20560;DHT22;10438;51.454;6.718;2023-02-20T03:24:44;6.40;99.90
20560;DHT22;10438;51.454;6.718;2023-02-20T03:27:23;6.40;99.90
20560;DHT22;10438;51.454;6.718;2023-02-20T03:29:52;6.40;99.90
20560;DHT22;10438;51.454;6.718;2023-02-20T03:32:23;6.40;99.90
20560;DHT22;10438;51.454;6.718;2023-02-20T03:35:09;6.40;99.90
20560;DHT22;10438;51.454;6.718;2023-02-20T03:37:54;6.40;99.90
20560;DHT22;10438;51.454;6.718;2023-02-20T03:40:39;6.40;99.90
20560;DHT22;10438;51.454;6.718;2023-02-20T03:43:26;6.40;99.90
20560;DHT22;10438;51.454;6.718;2023-02-20T03:46:03;6.40;99.90
20560;DHT22;10438;51.454;6.718;2023-02-20T03:48:39;6.40;99.90
20560;DHT22;10438;51.454;6.718;2023-02-20T03:51:07;6.40;99.90
20560;DHT22;10438;51.454;6.718;2023-02-20T03:53:36;6.40;99.90
20560;DHT22;10438;51.454;6.718;2023-02-20T03:56:05;6.40;99.90
20560;DHT22;10438;51.454;6.718;2023-02-20T03:58:36;6.40;99.90
20560;DHT22;10438;51.454;6.718;2023-02-20T04:01:05;6.40;99.90
20560;DHT22;10438;51.454;6.718;2023-02-20T04:03:37;6.40;99.90
20560;DHT22;10438;51.454;6.718;2023-02-20T04:06:06;6.40;99.90
20560;DHT22;10438;51.454;6.718;2023-02-20T04:08:40;6.40;99.90
20560;DHT22;10438;51.454;6.718;2023-02-20T04:11:26;6.30;99.90
20560;DHT22;10438;51.454;6.718;2023-02-20T04:13:53;6.30;99.90
20560;DHT22;10438;51.454;6.718;2023-02-20T04:16:20;6.20;99.90
20560;DHT22;10438;51.454;6.718;2023-02-20T04:18:46;6.30;99.90
20560;DHT22;10438;51.454;6.718;2023-02-20T04:21:38;6.20;99.90
20560;DHT22;10438;51.454;6.718;2023-02-20T04:24:12;6.30;99.90
20560;DHT22;10438;51.454;6.718;2023-02-20T04:26:38;6.30;99.90
20560;DHT22;10438;51.454;6.718;2023-02-20T04:29:04;6.30;99.90
20560;DHT22;10438;51.454;6.718;2023-02-20T04:31:30;6.20;99.90
20560;DHT22;10438;51.454;6.718;2023-02-20T04:33:56;6.20;99.90
20560;DHT22;10438;51.454;6.718;2023-02-20T04:36:21;6.20;99.90
20560;DHT22;10438;51.454;6.718;2023-02-20T04:38:47;6.20;99.90
20560;DHT22;10438;51.454;6.718;2023-02-20T04:41:13;6.20;99.90
20560;DHT22;10438;51.454;6.718;2023-02-20T04:43:39;6.20;99.90
20560;DHT22;10438;51.454;6.718;2023-02-20T04:46:04;6.20;99.90
20560;DHT22;10438;51.454;6.718;2023-02-20T04:48:30;6.10;99.90
20560;DHT22;10438;51.454;6.718;2023-02-20T04:50:55;6.10;99.90
20560;DHT22;10438;51.454;6.718;2023-02-20T04:53:21;6.00;99.90
20560;DHT22;10438;51.454;6.718;2023-02-20T04:55:46;6.10;99.90
20560;DHT22;10438;51.454;6.718;2023-02-20T04:58:12;6.00;99.90
20560;DHT22;10438;51.454;6.718;2023-02-20T05:00:38;6.00;99.90
20560;DHT22;10438;51.454;6.718;2023-02-20T05:03:03;6.00;99.90
20560;DHT22;10438;51.454;6.718;2023-02-20T05:05:29;5.90;99.90
20560;DHT22;10438;51.454;6.718;2023-02-20T05:08:02;5.90;99.90
20560;DHT22;10438;51.454;6.718;2023-02-20T05:10:30;5.90;99.90
20560;DHT22;10438;51.454;6.718;2023-02-20T05:12:56;5.90;99.90
20560;DHT22;10438;51.454;6.718;2023-02-20T05:15:23;5.90;99.90
20560;DHT22;10438;51.454;6.718;2023-02-20T05:17:49;5.90;99.90
20560;DHT22;10438;51.454;6.718;2023-02-20T05:20:15;6.00;99.90
20560;DHT22;10438;51.454;6.718;2023-02-20T05:22:41;6.00;99.90
20560;DHT22;10438;51.454;6.718;2023-02-20T05:25:07;6.00;99.90
20560;DHT22;10438;51.454;6.718;2023-02-20T05:27:33;6.10;99.90
20560;DHT22;10438;51.454;6.718;2023-02-20T05:29:59;6.00;99.90
20560;DHT22;10438;51.454;6.718;2023-02-20T05:32:28;6.00;99.90
20560;DHT22;10438;51.454;6.718;2023-02-20T05:34:54;6.00;99.90
20560;DHT22;10438;51.454;6.718;2023-02-20T05:37:20;6.10;99.90
20560;DHT22;10438;51.454;6.718;2023-02-20T05:39:46;6.00;99.90
20560;DHT22;10438;51.454;6.718;2023-02-20T05:42:13;6.00;99.90
20560;DHT22;10438;51.454;6.718;2023-02-20T05:44:39;6.00;99.90
20560;DHT22;10438;51.454;6.718;2023-02-20T05:47:05;6.00;99.90
20560;DHT22;10438;51.454;6.718;2023-02-20T05:49:32;6.00;99.90
20560;DHT22;10438;51.454;6.718;2023-02-20T05:51:59;6.00;99.90
20560;DHT22;10438;51.454;6.718;2023-02-20T05:54:25;6.00;99.90
20560;DHT22;10438;51.454;6.718;2023-02-20T05:56:51;6.10;99.90
20560;DHT22;10438;51.454;6.718;2023-02-20T05:59:19;6.10;99.90
20560;DHT22;10438;51.454;6.718;2023-02-20T06:01:45;6.10;99.90
20560;DHT22;10438;51.454;6.718;2023-02-20T06:04:11;6.10;99.90
20560;DHT22;10438;51.454;6.718;2023-02-20T06:06:38;6.10;99.90
20560;DHT22;10438;51.454;6.718;2023-02-20T06:09:06;6.10;99.90
20560;DHT22;10438;51.454;6.718;2023-02-20T06:11:32;6.10;99.90
20560;DHT22;10438;51.454;6.718;2023-02-20T06:13:58;6.10;99.90
20560;DHT22;10438;51.454;6.718;2023-02-20T06:16:26;6.10;99.90
20560;DHT22;10438;51.454;6.718;2023-02-20T06:18:52;6.10;99.90
20560;DHT22;10438;51.454;6.718;2023-02-20T06:21:18;6.10;99.90
20560;DHT22;10438;51.454;6.718;2023-02-20T06:23:45;6.10;99.90
20560;DHT22;10438;51.454;6.718;2023-02-20T06:26:11;6.20;99.90
20560;DHT22;10438;51.454;6.718;2023-02-20T06:28:37;6.20;99.90
20560;DHT22;10438;51.454;6.718;2023-02-20T06:31:04;6.20;99.90
20560;DHT22;10438;51.454;6.718;2023-02-20T06:33:30;6.20;99.90
20560;DHT22;10438;51.454;6.718;2023-02-20T06:35:55;6.20;99.90
20560;DHT22;10438;51.454;6.718;2023-02-20T06:38:21;6.20;99.90
20560;DHT22;10438;51.454;6.718;2023-02-20T06:40:47;6.20;99.90
20560;DHT22;10438;51.454;6.718;2023-02-20T06:43:12;6.20;99.90
20560;DHT22;10438;51.454;6.718;2023-02-20T06:45:38;6.20;99.90
20560;DHT22;10438;51.454;6.718;2023-02-20T06:48:03;6.20;99.90
20560;DHT22;10438;51.454;6.718;2023-02-20T06:50:29;6.20;99.90
20560;DHT22;10438;51.454;6.718;2023-02-20T06:52:55;6.20;99.90
20560;DHT22;10438;51.454;6.718;2023-02-20T06:55:20;6.20;99.90
20560;DHT22;10438;51.454;6.718;2023-02-20T06:57:46;6.20;99.90
20560;DHT22;10438;51.454;6.718;2023-02-20T07:00:12;6.30;99.90
20560;DHT22;10438;51.454;6.718;2023-02-20T07:02:38;6.30;99.90
20560;DHT22;10438;51.454;6.718;2023-02-20T07:05:03;6.20;99.90
20560;DHT22;10438;51.454;6.718;2023-02-20T07:07:29;6.20;99.90
20560;DHT22;10438;51.454;6.718;2023-02-20T07:09:55;6.30;99.90
20560;DHT22;10438;51.454;6.718;2023-02-20T07:12:20;6.20;99.90
20560;DHT22;10438;51.454;6.718;2023-02-20T07:14:46;6.30;99.90
20560;DHT22;10438;51.454;6.718;2023-02-20T07:17:11;6.30;99.90
20560;DHT22;10438;51.454;6.718;2023-02-20T07:19:37;6.30;99.90
20560;DHT22;10438;51.454;6.718;2023-02-20T07:22:02;6.30;99.90
20560;DHT22;10438;51.454;6.718;2023-02-20T07:24:28;6.30;99.90
20560;DHT22;10438;51.454;6.718;2023-02-20T07:26:54;6.30;99.90
20560;DHT22;10438;51.454;6.718;2023-02-20T07:29:19;6.40;99.90
20560;DHT22;10438;51.454;6.718;2023-02-20T07:31:45;6.40;99.90
20560;DHT22;10438;51.454;6.718;2023-02-20T07:34:10;6.40;99.90
20560;DHT22;10438;51.454;6.718;2023-02-20T07:36:36;6.40;99.90
20560;DHT22;10438;51.454;6.718;2023-02-20T07:39:03;6.40;99.90
20560;DHT22;10438;51.454;6.718;2023-02-20T07:41:30;6.50;99.90
20560;DHT22;10438;51.454;6.718;2023-02-20T07:43:59;6.50;99.90
20560;DHT22;10438;51.454;6.718;2023-02-20T07:46:24;6.50;99.90
20560;DHT22;10438;51.454;6.718;2023-02-20T07:48:50;6.60;99.90
20560;DHT22;10438;51.454;6.718;2023-02-20T07:51:17;6.60;99.90
20560;DHT22;10438;51.454;6.718;2023-02-20T07:53:50;6.60;99.90
20560;DHT22;10438;51.454;6.718;2023-02-20T07:56:17;6.70;99.90
20560;DHT22;10438;51.454;6.718;2023-02-20T07:58:44;6.70;99.90
20560;DHT22;10438;51.454;6.718;2023-02-20T08:01:09;6.70;99.90
20560;DHT22;10438;51.454;6.718;2023-02-20T08:03:35;6.80;99.90
20560;DHT22;10438;51.454;6.718;2023-02-20T08:06:00;6.80;99.90
20560;DHT22;10438;51.454;6.718;2023-02-20T08:08:26;6.90;99.90
20560;DHT22;10438;51.454;6.718;2023-02-20T08:10:51;6.90;99.90
20560;DHT22;10438;51.454;6.718;2023-02-20T08:13:17;7.00;99.90
20560;DHT22;10438;51.454;6.718;2023-02-20T08:15:43;7.00;99.90
20560;DHT22;10438;51.454;6.718;2023-02-20T08:18:13;7.00;99.90
20560;DHT22;10438;51.454;6.718;2023-02-20T08:20:38;7.10;99.90
20560;DHT22;10438;51.454;6.718;2023-02-20T08:23:04;7.10;99.90
20560;DHT22;10438;51.454;6.718;2023-02-20T08:25:30;7.20;99.90
20560;DHT22;10438;51.454;6.718;2023-02-20T08:27:56;7.20;99.90
20560;DHT22;10438;51.454;6.718;2023-02-20T08:30:27;7.20;99.90
20560;DHT22;10438;51.454;6.718;2023-02-20T08:32:53;7.30;99.90
20560;DHT22;10438;51.454;6.718;2023-02-20T08:35:20;7.20;99.90
20560;DHT22;10438;51.454;6.718;2023-02-20T08:37:48;7.30;99.90
20560;DHT22;10438;51.454;6.718;2023-02-20T08:40:13;7.30;99.90
20560;DHT22;10438;51.454;6.718;2023-02-20T08:42:39;7.30;99.90
20560;DHT22;10438;51.454;6.718;2023-02-20T08:45:06;7.40;99.90
20560;DHT22;10438;51.454;6.718;2023-02-20T08:47:32;7.40;99.90
20560;DHT22;10438;51.454;6.718;2023-02-20T08:49:58;7.40;99.90
20560;DHT22;10438;51.454;6.718;2023-02-20T08:52:23;7.50;99.90
20560;DHT22;10438;51.454;6.718;2023-02-20T08:54:49;7.50;99.90
20560;DHT22;10438;51.454;6.718;2023-02-20T08:57:15;7.50;99.90
20560;DHT22;10438;51.454;6.718;2023-02-20T08:59:40;7.50;99.90
20560;DHT22;10438;51.454;6.718;2023-02-20T09:02:14;7.50;99.90
20560;DHT22;10438;51.454;6.718;2023-02-20T09:04:42;7.50;99.90
20560;DHT22;10438;51.454;6.718;2023-02-20T09:07:08;7.50;99.90
20560;DHT22;10438;51.454;6.718;2023-02-20T09:09:34;7.50;99.90
20560;DHT22;10438;51.454;6.718;2023-02-20T09:11:59;7.60;99.90
20560;DHT22;10438;51.454;6.718;2023-02-20T09:14:25;7.50;99.90
20560;DHT22;10438;51.454;6.718;2023-02-20T09:16:51;7.60;99.90
20560;DHT22;10438;51.454;6.718;2023-02-20T09:19:17;7.60;99.90
20560;DHT22;10438;51.454;6.718;2023-02-20T09:21:45;7.60;99.90
20560;DHT22;10438;51.454;6.718;2023-02-20T09:24:11;7.60;99.90
20560;DHT22;10438;51.454;6.718;2023-02-20T09:26:36;7.60;99.90
20560;DHT22;10438;51.454;6.718;2023-02-20T09:29:02;7.60;99.90
20560;DHT22;10438;51.454;6.718;2023-02-20T09:31:27;7.70;99.90
20560;DHT22;10438;51.454;6.718;2023-02-20T09:33:53;7.70;99.90
20560;DHT22;10438;51.454;6.718;2023-02-20T09:36:18;7.70;99.90
20560;DHT22;10438;51.454;6.718;2023-02-20T09:38:44;7.70;99.90
20560;DHT22;10438;51.454;6.718;2023-02-20T09:46:37;7.90;99.90
20560;DHT22;10438;51.454;6.718;2023-02-20T09:49:19;7.90;99.90
20560;DHT22;10438;51.454;6.718;2023-02-20T09:51:58;7.90;99.90
20560;DHT22;10438;51.454;6.718;2023-02-20T09:54:41;7.80;99.90
20560;DHT22;10438;51.454;6.718;2023-02-20T09:57:23;7.80;99.90
20560;DHT22;10438;51.454;6.718;2023-02-20T10:00:35;7.80;99.90
20560;DHT22;10438;51.454;6.718;2023-02-20T10:03:14;7.80;99.90
20560;DHT22;10438;51.454;6.718;2023-02-20T10:05:42;7.90;99.90
20560;DHT22;10438;51.454;6.718;2023-02-20T10:08:10;7.90;99.90
20560;DHT22;10438;51.454;6.718;2023-02-20T10:10:36;7.90;99.90
20560;DHT22;10438;51.454;6.718;2023-02-20T10:15:58;7.90;99.90
20560;DHT22;10438;51.454;6.718;2023-02-20T10:21:41;7.90;99.90
20560;DHT22;10438;51.454;6.718;2023-02-20T10:27:55;8.00;99.90
20560;DHT22;10438;51.454;6.718;2023-02-20T10:30:02;8.00;99.90
20560;DHT22;10438;51.454;6.718;2023-02-20T10:32:45;8.10;99.90
20560;DHT22;10438;51.454;6.718;2023-02-20T10:35:19;8.20;99.90
20560;DHT22;10438;51.454;6.718;2023-02-20T10:37:53;8.20;99.90
20560;DHT22;10438;51.454;6.718;2023-02-20T10:40:46;8.20;99.90
20560;DHT22;10438;51.454;6.718;2023-02-20T10:43:20;8.20;99.90
20560;DHT22;10438;51.454;6.718;2023-02-20T10:46:17;8.30;99.90
20560;DHT22;10438;51.454;6.718;2023-02-20T10:48:44;8.30;99.90
20560;DHT22;10438;51.454;6.718;2023-02-20T10:51:16;8.30;99.90
20560;DHT22;10438;51.454;6.718;2023-02-20T10:53:48;8.30;99.90
20560;DHT22;10438;51.454;6.718;2023-02-20T10:59:24;8.40;99.90
20560;DHT22;10438;51.454;6.718;2023-02-20T11:01:55;8.40;99.90
20560;DHT22;10438;51.454;6.718;2023-02-20T11:04:32;8.40;99.90
20560;DHT22;10438;51.454;6.718;2023-02-20T11:07:18;8.40;99.90
20560;DHT22;10438;51.454;6.718;2023-02-20T11:09:44;8.40;99.90
20560;DHT22;10438;51.454;6.718;2023-02-20T11:12:29;8.40;99.90
20560;DHT22;10438;51.454;6.718;2023-02-20T11:14:58;8.30;99.90
20560;DHT22;10438;51.454;6.718;2023-02-20T14:25:36;8.50;99.90
20560;DHT22;10438;51.454;6.718;2023-02-20T14:28:04;8.50;99.90
20560;DHT22;10438;51.454;6.718;2023-02-20T14:30:30;8.50;99.90
20560;DHT22;10438;51.454;6.718;2023-02-20T14:32:56;8.50;99.90
20560;DHT22;10438;51.454;6.718;2023-02-20T14:38:18;8.60;99.90
20560;DHT22;10438;51.454;6.718;2023-02-20T14:40:47;8.60;99.90
20560;DHT22;10438;51.454;6.718;2023-02-20T14:43:20;8.60;99.90
20560;DHT22;10438;51.454;6.718;2023-02-20T14:45:56;8.60;99.90
20560;DHT22;10438;51.454;6.718;2023-02-20T14:48:27;8.60;99.90
20560;DHT22;10438;51.454;6.718;2023-02-20T14:51:08;8.60;99.90
20560;DHT22;10438;51.454;6.718;2023-02-20T14:53:36;8.60;99.90
20560;DHT22;10438;51.454;6.718;2023-02-20T14:56:09;8.60;99.90
20560;DHT22;10438;51.454;6.718;2023-02-20T14:58:36;8.60;99.90
20560;DHT22;10438;51.454;6.718;2023-02-20T15:01:35;8.70;99.90
20560;DHT22;10438;51.454;6.718;2023-02-20T15:04:11;8.70;99.90
20560;DHT22;10438;51.454;6.718;2023-02-20T15:06:39;8.70;99.90
20560;DHT22;10438;51.454;6.718;2023-02-20T15:09:06;8.60;99.90
20560;DHT22;10438;51.454;6.718;2023-02-20T15:11:33;8.70;99.90
20560;DHT22;10438;51.454;6.718;2023-02-20T15:14:00;8.70;99.90
20560;DHT22;10438;51.454;6.718;2023-02-20T15:16:30;8.70;99.90
20560;DHT22;10438;51.454;6.718;2023-02-20T15:18:57;8.70;99.90
20560;DHT22;10438;51.454;6.718;2023-02-20T15:21:40;8.70;99.90
20560;DHT22;10438;51.454;6.718;2023-02-20T15:24:54;8.70;99.90
20560;DHT22;10438;51.454;6.718;2023-02-20T15:27:11;8.70;99.90
20560;DHT22;10438;51.454;6.718;2023-02-20T15:29:37;8.70;99.90
20560;DHT22;10438;51.454;6.718;2023-02-20T15:32:06;8.70;99.90
20560;DHT22;10438;51.454;6.718;2023-02-20T15:34:38;8.70;99.90
20560;DHT22;10438;51.454;6.718;2023-02-20T15:39:44;8.70;99.90
20560;DHT22;10438;51.454;6.718;2023-02-20T15:42:12;8.80;99.90
20560;DHT22;10438;51.454;6.718;2023-02-20T15:44:38;8.80;99.90
20560;DHT22;10438;51.454;6.718;2023-02-20T15:47:04;8.80;99.90
20560;DHT22;10438;51.454;6.718;2023-02-20T15:49:29;8.80;99.90
20560;DHT22;10438;51.454;6.718;2023-02-20T15:51:55;8.80;99.90
20560;DHT22;10438;51.454;6.718;2023-02-20T15:54:21;8.80;99.90
20560;DHT22;10438;51.454;6.718;2023-02-20T15:56:46;8.80;99.90
20560;DHT22;10438;51.454;6.718;2023-02-20T15:59:12;8.80;99.90
20560;DHT22;10438;51.454;6.718;2023-02-20T16:01:39;8.80;99.90
20560;DHT22;10438;51.454;6.718;2023-02-20T16:04:05;8.80;99.90
20560;DHT22;10438;51.454;6.718;2023-02-20T16:06:31;8.90;99.90
20560;DHT22;10438;51.454;6.718;2023-02-20T16:08:57;8.90;99.90
20560;DHT22;10438;51.454;6.718;2023-02-20T16:11:25;8.90;99.90
20560;DHT22;10438;51.454;6.718;2023-02-20T16:13:55;8.90;99.90
20560;DHT22;10438;51.454;6.718;2023-02-20T16:16:30;8.90;99.90
20560;DHT22;10438;51.454;6.718;2023-02-20T16:18:56;8.90;99.90
20560;DHT22;10438;51.454;6.718;2023-02-20T16:21:23;8.90;99.90
20560;DHT22;10438;51.454;6.718;2023-02-20T16:23:50;8.90;99.90
20560;DHT22;10438;51.454;6.718;2023-02-20T16:26:21;8.90;99.90
20560;DHT22;10438;51.454;6.718;2023-02-20T16:28:55;8.90;99.90
20560;DHT22;10438;51.454;6.718;2023-02-20T16:34:24;8.90;99.90
20560;DHT22;10438;51.454;6.718;2023-02-20T16:36:51;8.80;99.90
20560;DHT22;10438;51.454;6.718;2023-02-20T16:39:16;8.90;99.90
20560;DHT22;10438;51.454;6.718;2023-02-20T16:41:42;8.90;99.90
20560;DHT22;10438;51.454;6.718;2023-02-20T16:46:47;8.90;99.90
20560;DHT22;10438;51.454;6.718;2023-02-20T16:49:13;8.90;99.90
20560;DHT22;10438;51.454;6.718;2023-02-20T16:51:42;8.90;99.90
20560;DHT22;10438;51.454;6.718;2023-02-20T16:54:14;8.90;99.90
20560;DHT22;10438;51.454;6.718;2023-02-20T16:56:39;8.90;99.90
20560;DHT22;10438;51.454;6.718;2023-02-20T16:59:05;8.90;99.90
20560;DHT22;10438;51.454;6.718;2023-02-20T17:01:30;8.90;99.90
20560;DHT22;10438;51.454;6.718;2023-02-20T17:03:56;8.90;99.90
20560;DHT22;10438;51.454;6.718;2023-02-20T17:06:22;8.90;99.90
20560;DHT22;10438;51.454;6.718;2023-02-20T17:08:52;8.90;99.90
20560;DHT22;10438;51.454;6.718;2023-02-20T17:11:17;8.90;99.90
20560;DHT22;10438;51.454;6.718;2023-02-20T17:13:43;8.90;99.90
20560;DHT22;10438;51.454;6.718;2023-02-20T17:16:08;8.80;99.90
20560;DHT22;10438;51.454;6.718;2023-02-20T17:18:34;8.80;99.90
20560;DHT22;10438;51.454;6.718;2023-02-20T17:20:59;8.80;99.90
20560;DHT22;10438;51.454;6.718;2023-02-20T17:23:25;8.80;99.90
20560;DHT22;10438;51.454;6.718;2023-02-20T17:25:50;8.80;99.90
20560;DHT22;10438;51.454;6.718;2023-02-20T17:28:16;8.90;99.90
20560;DHT22;10438;51.454;6.718;2023-02-20T17:30:42;8.80;99.90
20560;DHT22;10438;51.454;6.718;2023-02-20T17:33:07;8.90;99.90
20560;DHT22;10438;51.454;6.718;2023-02-20T17:35:33;8.90;99.90
20560;DHT22;10438;51.454;6.718;2023-02-20T17:37:58;8.90;99.90
20560;DHT22;10438;51.454;6.718;2023-02-20T17:40:24;8.90;99.90
20560;DHT22;10438;51.454;6.718;2023-02-20T17:42:50;8.90;99.90
20560;DHT22;10438;51.454;6.718;2023-02-20T17:45:16;8.90;99.90
20560;DHT22;10438;51.454;6.718;2023-02-20T17:47:41;8.90;99.90
20560;DHT22;10438;51.454;6.718;2023-02-20T17:50:07;8.90;99.90
20560;DHT22;10438;51.454;6.718;2023-02-20T17:52:33;8.90;99.90
20560;DHT22;10438;51.454;6.718;2023-02-20T17:54:58;8.90;99.90
20560;DHT22;10438;51.454;6.718;2023-02-20T17:57:24;8.90;99.90
20560;DHT22;10438;51.454;6.718;2023-02-20T17:59:50;8.90;99.90
20560;DHT22;10438;51.454;6.718;2023-02-20T18:02:16;8.80;99.90
20560;DHT22;10438;51.454;6.718;2023-02-20T18:04:42;8.90;99.90
20560;DHT22;10438;51.454;6.718;2023-02-20T18:07:09;8.90;99.90
20560;DHT22;10438;51.454;6.718;2023-02-20T18:09:35;8.80;99.90
20560;DHT22;10438;51.454;6.718;2023-02-20T18:12:01;8.80;99.90
20560;DHT22;10438;51.454;6.718;2023-02-20T18:14:27;8.80;99.90
20560;DHT22;10438;51.454;6.718;2023-02-20T18:16:54;8.80;99.90
20560;DHT22;10438;51.454;6.718;2023-02-20T18:19:19;8.80;99.90
20560;DHT22;10438;51.454;6.718;2023-02-20T18:21:45;8.80;99.90
20560;DHT22;10438;51.454;6.718;2023-02-20T18:24:18;8.90;99.90
20560;DHT22;10438;51.454;6.718;2023-02-20T18:26:44;8.80;99.90
20560;DHT22;10438;51.454;6.718;2023-02-20T18:29:09;8.90;99.90
20560;DHT22;10438;51.454;6.718;2023-02-20T18:31:35;8.90;99.90
20560;DHT22;10438;51.454;6.718;2023-02-20T18:34:01;8.90;99.90
20560;DHT22;10438;51.454;6.718;2023-02-20T18:36:27;8.90;99.90
20560;DHT22;10438;51.454;6.718;2023-02-20T18:38:54;8.90;99.90
20560;DHT22;10438;51.454;6.718;2023-02-20T18:41:20;8.90;99.90
20560;DHT22;10438;51.454;6.718;2023-02-20T18:43:47;8.90;99.90
20560;DHT22;10438;51.454;6.718;2023-02-20T18:46:27;8.90;99.90
20560;DHT22;10438;51.454;6.718;2023-02-20T18:48:53;8.90;99.90
20560;DHT22;10438;51.454;6.718;2023-02-20T18:51:29;8.90;99.90
20560;DHT22;10438;51.454;6.718;2023-02-20T18:53:55;8.90;99.90
20560;DHT22;10438;51.454;6.718;2023-02-20T18:56:22;8.90;99.90
20560;DHT22;10438;51.454;6.718;2023-02-20T18:58:48;8.90;99.90
20560;DHT22;10438;51.454;6.718;2023-02-20T19:01:15;8.90;99.90
20560;DHT22;10438;51.454;6.718;2023-02-20T19:03:45;8.90;99.90
20560;DHT22;10438;51.454;6.718;2023-02-20T19:06:11;8.90;99.90
20560;DHT22;10438;51.454;6.718;2023-02-20T19:08:36;8.90;99.90
20560;DHT22;10438;51.454;6.718;2023-02-20T19:11:02;8.90;99.90
20560;DHT22;10438;51.454;6.718;2023-02-20T19:13:28;8.90;99.90
20560;DHT22;10438;51.454;6.718;2023-02-20T19:15:53;8.90;99.90
20560;DHT22;10438;51.454;6.718;2023-02-20T19:18:19;8.90;99.90
20560;DHT22;10438;51.454;6.718;2023-02-20T19:20:45;8.90;99.90
20560;DHT22;10438;51.454;6.718;2023-02-20T19:23:10;8.90;99.90
20560;DHT22;10438;51.454;6.718;2023-02-20T19:25:36;8.90;99.90
20560;DHT22;10438;51.454;6.718;2023-02-20T19:28:02;8.90;99.90
20560;DHT22;10438;51.454;6.718;2023-02-20T19:30:28;8.90;99.90
20560;DHT22;10438;51.454;6.718;2023-02-20T19:32:53;8.90;99.90
20560;DHT22;10438;51.454;6.718;2023-02-20T19:35:19;8.90;99.90
20560;DHT22;10438;51.454;6.718;2023-02-20T19:37:44;8.90;99.90
20560;DHT22;10438;51.454;6.718;2023-02-20T19:40:10;8.90;99.90
20560;DHT22;10438;51.454;6.718;2023-02-20T19:42:36;8.90;99.90
20560;DHT22;10438;51.454;6.718;2023-02-20T19:45:03;8.90;99.90
20560;DHT22;10438;51.454;6.718;2023-02-20T19:47:29;8.90;99.90
20560;DHT22;10438;51.454;6.718;2023-02-20T19:49:54;8.90;99.90
20560;DHT22;10438;51.454;6.718;2023-02-20T19:52:20;8.90;99.90
20560;DHT22;10438;51.454;6.718;2023-02-20T19:54:46;8.80;99.90